New Hope, Indiana
Current Conditions -  °F | °C
As of 6:53 PM on Friday 21 Nov 2014 (Local Time) from KBMG Reporting Station
Clear Clear  
Wind Chill: 23°   Ceiling: Unl
Heat Index: 29°   Visibility: 10mi
Dew Point: 11°   Wind: 6mph
Humidity: 47%   Direction: 130°SE
Pressure: 30.39"   Gusts: NA
Location:  39.3008°N, 86.8112°W
Report Text: KBMG 212353Z 13005KT 10SM CLR M02/M12 A3039 RMK AO2 SLP302 T10171117 10022 21022 56004
Loading
Personal Weather Stations






























Interactive Weather Map New forecast layout! Learn more

10-Day Weather Forecast

Advertisements
Track Severe Weather on mobile